Time;durP1;ratioP1;P1;durP2;ratioP2;P2;SDS_P1;SDS_P2;PMS_P1;PMS_P2;Temp;Humidity;BMP_temperature;BMP_pressure;BME280_temperature;BME280_humidity;BME280_pressure;Samples;Min_cycle;Max_cycle;Signal;HPM_P1;HPM_P2
2023/12/26 00:01:54;;;;;;;8.60;7.90;;;10.90;1.00;;;;;;5016911;28;20636;-66
2023/12/26 00:04:23;;;;;;;6.37;5.97;;;11.00;1.00;;;;;;5016033;28;20212;-66
2023/12/26 00:06:52;;;;;;;6.03;5.60;;;11.00;1.00;;;;;;5014447;28;20572;-66
2023/12/26 00:09:18;;;;;;;5.80;5.50;;;10.90;1.00;;;;;;5009165;28;20547;-67
2023/12/26 00:11:46;;;;;;;5.37;5.10;;;10.90;1.00;;;;;;5021467;28;20216;-65
2023/12/26 00:14:17;;;;;;;5.53;5.23;;;10.90;1.00;;;;;;5007304;28;20204;-66
2023/12/26 00:16:44;;;;;;;5.73;5.43;;;11.00;1.00;;;;;;5024711;28;20279;-66
2023/12/26 00:19:12;;;;;;;5.80;5.50;;;11.00;1.00;;;;;;5001598;28;20196;-68
2023/12/26 00:21:40;;;;;;;6.17;5.77;;;11.00;1.00;;;;;;5025291;28;20197;-65
2023/12/26 00:24:07;;;;;;;5.97;5.67;;;10.90;1.00;;;;;;5027558;28;20237;-65
2023/12/26 00:26:38;;;;;;;5.77;5.47;;;11.00;1.00;;;;;;4989082;28;20201;-65
2023/12/26 00:29:08;;;;;;;6.30;6.00;;;11.00;99.90;;;;;;5005971;28;20208;-65
2023/12/26 00:31:40;;;;;;;6.00;5.67;;;11.00;99.90;;;;;;5019484;28;20200;-64
2023/12/26 00:34:08;;;;;;;5.83;5.53;;;11.00;99.90;;;;;;4994808;28;20200;-65
2023/12/26 00:36:35;;;;;;;6.33;6.03;;;10.90;1.00;;;;;;5002859;28;20201;-65
2023/12/26 00:39:03;;;;;;;5.90;5.60;;;10.90;1.00;;;;;;5016779;28;20271;-65
2023/12/26 00:41:30;;;;;;;6.10;5.80;;;10.90;1.00;;;;;;4997208;28;20544;-62
2023/12/26 00:43:57;;;;;;;5.77;5.47;;;10.90;1.00;;;;;;5000538;28;20312;-63
2023/12/26 00:46:24;;;;;;;5.47;5.17;;;10.90;1.00;;;;;;5008003;28;20524;-61
2023/12/26 00:48:51;;;;;;;5.37;5.07;;;10.90;99.90;;;;;;4975084;28;20214;-62
2023/12/26 00:51:18;;;;;;;8.53;5.03;;;10.90;1.00;;;;;;5013554;28;20660;-64
2023/12/26 00:53:46;;;;;;;5.23;4.93;;;10.80;1.00;;;;;;5006816;28;20829;-64
2023/12/26 00:56:13;;;;;;;4.90;4.70;;;10.80;1.00;;;;;;4996583;28;20201;-65
2023/12/26 00:58:40;;;;;;;4.87;4.67;;;10.80;1.00;;;;;;5003756;28;20200;-64
2023/12/26 01:01:07;;;;;;;5.07;4.77;;;10.80;1.00;;;;;;4993398;28;20207;-65
2023/12/26 01:03:35;;;;;;;4.90;4.50;;;10.80;1.00;;;;;;5024343;28;20681;-66
2023/12/26 01:06:02;;;;;;;5.00;4.53;;;10.70;1.00;;;;;;5002706;28;20668;-67
2023/12/26 01:08:29;;;;;;;4.70;4.40;;;10.70;1.00;;;;;;5001892;28;20217;-65
2023/12/26 01:10:56;;;;;;;4.77;4.47;;;10.70;1.00;;;;;;5018592;28;20196;-65
2023/12/26 01:13:23;;;;;;;5.20;4.70;;;10.60;1.00;;;;;;5002167;28;20601;-65
2023/12/26 01:15:50;;;;;;;4.53;4.23;;;10.70;1.00;;;;;;5024843;28;20208;-64
2023/12/26 01:18:19;;;;;;;7.17;4.20;;;10.70;1.00;;;;;;5007002;28;20278;-66
2023/12/26 01:20:47;;;;;;;4.60;4.30;;;10.60;1.00;;;;;;4978476;28;20205;-66
2023/12/26 01:23:14;;;;;;;4.40;4.20;;;10.60;1.00;;;;;;5017510;28;20660;-66
2023/12/26 01:25:41;;;;;;;4.60;4.30;;;10.60;1.00;;;;;;5004560;28;20303;-65
2023/12/26 01:28:08;;;;;;;4.13;3.93;;;10.60;1.00;;;;;;5009233;28;20216;-65
2023/12/26 01:30:38;;;;;;;4.20;4.00;;;10.60;1.00;;;;;;5016465;28;20251;-65
2023/12/26 01:33:05;;;;;;;4.33;4.13;;;10.60;1.00;;;;;;5009153;28;20196;-66
2023/12/26 01:35:33;;;;;;;4.07;3.87;;;10.50;1.00;;;;;;5021672;28;20615;-65
2023/12/26 01:38:01;;;;;;;4.47;4.17;;;10.50;1.00;;;;;;5003111;28;20211;-66
2023/12/26 01:40:28;;;;;;;3.93;3.73;;;10.50;1.00;;;;;;5010822;28;20199;-66
2023/12/26 01:42:55;;;;;;;4.00;3.80;;;10.50;1.00;;;;;;5022536;28;20491;-66
2023/12/26 01:45:22;;;;;;;3.90;3.70;;;10.50;1.00;;;;;;5011985;28;20220;-66
2023/12/26 01:47:55;;;;;;;3.90;3.70;;;10.50;1.00;;;;;;5019284;28;20201;-67
2023/12/26 01:50:23;;;;;;;4.33;4.13;;;10.50;1.00;;;;;;4992933;28;20211;-62
2023/12/26 01:52:51;;;;;;;3.90;3.70;;;10.50;1.00;;;;;;5015914;28;20215;-63
2023/12/26 01:55:20;;;;;;;4.13;3.93;;;10.50;99.90;;;;;;5000466;28;20573;-63
2023/12/26 01:57:47;;;;;;;6.27;5.77;;;10.50;1.00;;;;;;5019559;28;20641;-63
2023/12/26 02:00:14;;;;;;;4.73;4.43;;;10.50;1.00;;;;;;5017775;28;20883;-66
2023/12/26 02:02:43;;;;;;;4.70;4.50;;;10.50;99.90;;;;;;5010930;28;20193;-66
2023/12/26 02:05:12;;;;;;;4.60;4.40;;;10.50;99.90;;;;;;5000535;28;20369;-66
2023/12/26 02:07:39;;;;;;;4.30;4.10;;;10.50;99.90;;;;;;5006393;28;20291;-66
2023/12/26 02:10:07;;;;;;;4.83;4.43;;;10.50;99.90;;;;;;5011234;28;20191;-67
2023/12/26 02:12:34;;;;;;;4.33;4.13;;;10.40;99.90;;;;;;5027723;28;20194;-66
2023/12/26 02:15:03;;;;;;;4.50;4.30;;;10.40;99.90;;;;;;4987342;28;20192;-66
2023/12/26 02:17:31;;;;;;;4.90;4.63;;;10.40;99.90;;;;;;5012645;28;20807;-66
2023/12/26 02:19:58;;;;;;;4.40;4.20;;;10.40;99.90;;;;;;5010433;28;20196;-66
2023/12/26 02:22:26;;;;;;;4.40;4.20;;;10.40;99.90;;;;;;4997248;28;20272;-66
2023/12/26 02:24:54;;;;;;;4.23;4.00;;;10.30;99.90;;;;;;4996052;28;20223;-66
2023/12/26 02:27:25;;;;;;;4.33;4.13;;;10.30;99.90;;;;;;5014643;28;20213;-67
2023/12/26 02:29:53;;;;;;;4.30;4.10;;;10.30;99.90;;;;;;5016856;28;20266;-66
2023/12/26 02:32:25;;;;;;;5.10;4.20;;;10.30;99.90;;;;;;5015319;28;20188;-66
2023/12/26 02:35:00;;;;;;;4.37;4.10;;;10.30;99.90;;;;;;5013042;28;20282;-66
2023/12/26 02:37:29;;;;;;;4.40;4.20;;;10.30;99.90;;;;;;5019476;28;20193;-66
2023/12/26 02:39:56;;;;;;;4.10;3.90;;;10.30;99.90;;;;;;5017514;28;20200;-66
2023/12/26 02:42:29;;;;;;;4.10;3.90;;;10.30;99.90;;;;;;5018170;28;20655;-66
2023/12/26 02:44:57;;;;;;;4.13;3.93;;;10.30;99.90;;;;;;5008912;28;20713;-66
2023/12/26 02:47:24;;;;;;;4.00;3.80;;;10.30;99.90;;;;;;5005433;28;20222;-66
2023/12/26 02:49:51;;;;;;;4.10;3.90;;;10.30;99.90;;;;;;5017364;28;20583;-66
2023/12/26 02:52:19;;;;;;;4.20;4.00;;;10.30;99.90;;;;;;4995337;28;20212;-66
2023/12/26 02:54:46;;;;;;;3.90;3.70;;;10.30;99.90;;;;;;5018502;28;20205;-66
2023/12/26 02:57:13;;;;;;;4.20;4.00;;;10.20;99.90;;;;;;5006717;28;20308;-67
2023/12/26 02:59:40;;;;;;;4.40;4.20;;;10.20;99.90;;;;;;5013250;28;20208;-66
2023/12/26 03:06:07;;;;;;;4.27;4.07;;;10.20;99.90;;;;;;5021776;28;20203;-66
2023/12/26 03:08:35;;;;;;;4.50;4.30;;;10.20;99.90;;;;;;5013951;28;20463;-66
2023/12/26 03:11:02;;;;;;;4.07;3.87;;;10.20;99.90;;;;;;4993493;28;20201;-61
2023/12/26 03:13:29;;;;;;;4.30;4.10;;;10.20;99.90;;;;;;5015300;28;20273;-62
2023/12/26 03:15:56;;;;;;;4.13;3.93;;;10.20;99.90;;;;;;5018102;28;20216;-62
2023/12/26 03:18:23;;;;;;;4.20;4.00;;;10.20;99.90;;;;;;5013261;28;20264;-61
2023/12/26 03:20:50;;;;;;;4.40;4.20;;;10.10;99.90;;;;;;4982638;28;20208;-62
2023/12/26 03:23:17;;;;;;;4.53;4.30;;;10.20;99.90;;;;;;5014400;28;20563;-63
2023/12/26 03:25:44;;;;;;;4.33;4.13;;;10.20;99.90;;;;;;5015798;28;20452;-62
2023/12/26 03:28:11;;;;;;;4.10;3.90;;;10.10;99.90;;;;;;4993486;28;20221;-62
2023/12/26 03:30:38;;;;;;;4.20;4.00;;;10.20;99.90;;;;;;4995725;28;20238;-62
2023/12/26 03:33:06;;;;;;;4.30;4.10;;;10.10;99.90;;;;;;5012734;28;20516;-61
2023/12/26 03:35:36;;;;;;;4.40;4.20;;;10.10;99.90;;;;;;5009986;28;20275;-62
2023/12/26 03:38:03;;;;;;;4.90;4.60;;;10.10;99.90;;;;;;4995047;28;20263;-62
2023/12/26 03:40:31;;;;;;;4.57;4.27;;;10.10;99.90;;;;;;5000523;28;20215;-62
2023/12/26 03:42:58;;;;;;;4.27;4.07;;;10.10;99.90;;;;;;5003368;28;20244;-62
2023/12/26 03:45:26;;;;;;;4.40;4.20;;;10.10;99.90;;;;;;5000825;28;20281;-61
2023/12/26 03:47:54;;;;;;;4.37;4.17;;;10.10;99.90;;;;;;5005627;28;22664;-61
2023/12/26 03:50:21;;;;;;;4.47;4.20;;;10.10;99.90;;;;;;4999280;28;20208;-62
2023/12/26 03:52:48;;;;;;;4.90;4.60;;;10.10;99.90;;;;;;5022871;28;20374;-63
2023/12/26 03:55:15;;;;;;;4.73;4.50;;;10.10;99.90;;;;;;4992137;28;20251;-62
2023/12/26 03:57:42;;;;;;;4.73;4.53;;;10.10;99.90;;;;;;5018809;28;20299;-62
2023/12/26 04:00:11;;;;;;;6.80;6.20;;;10.20;99.90;;;;;;4994222;28;20609;-62
2023/12/26 04:02:43;;;;;;;5.90;5.50;;;10.10;99.90;;;;;;5010625;28;20213;-62
2023/12/26 04:05:14;;;;;;;5.20;4.90;;;10.10;99.90;;;;;;4986030;28;20220;-61
2023/12/26 04:07:41;;;;;;;5.50;5.00;;;10.10;99.90;;;;;;4992242;28;20618;-62
2023/12/26 04:10:08;;;;;;;5.50;5.20;;;10.10;99.90;;;;;;5009378;28;20196;-67
2023/12/26 04:12:36;;;;;;;4.93;4.63;;;10.10;99.90;;;;;;4982198;28;20259;-66
2023/12/26 04:15:04;;;;;;;4.67;4.37;;;10.10;99.90;;;;;;4999402;28;20200;-67
2023/12/26 04:17:32;;;;;;;5.37;5.07;;;10.10;99.90;;;;;;4981573;28;20204;-66
2023/12/26 04:20:00;;;;;;;4.77;4.57;;;10.10;99.90;;;;;;4998514;28;20286;-62
2023/12/26 04:22:27;;;;;;;5.40;5.10;;;10.10;99.90;;;;;;4998736;28;20701;-64
2023/12/26 04:24:54;;;;;;;5.97;5.57;;;10.10;99.90;;;;;;5019678;28;20208;-61
2023/12/26 04:27:22;;;;;;;5.47;5.10;;;10.10;99.90;;;;;;5001371;28;20223;-62
2023/12/26 04:29:49;;;;;;;4.87;4.63;;;10.10;99.90;;;;;;5008834;28;20218;-61
2023/12/26 04:32:16;;;;;;;5.40;5.10;;;10.00;99.90;;;;;;5008132;28;20185;-62
2023/12/26 04:34:43;;;;;;;4.90;4.60;;;10.00;99.90;;;;;;5002115;28;20203;-63
2023/12/26 04:37:11;;;;;;;4.33;4.13;;;10.00;1.00;;;;;;4997264;28;20741;-63
2023/12/26 04:39:38;;;;;;;4.70;4.40;;;10.00;1.00;;;;;;4995719;28;20280;-62
2023/12/26 04:42:05;;;;;;;5.53;5.13;;;10.00;1.00;;;;;;5011136;28;20201;-63
2023/12/26 04:44:32;;;;;;;4.27;4.07;;;10.00;1.00;;;;;;5016906;28;20266;-63
2023/12/26 04:46:59;;;;;;;5.20;4.80;;;10.00;1.00;;;;;;5016267;28;20279;-63
2023/12/26 04:49:26;;;;;;;3.93;3.73;;;10.00;1.00;;;;;;4986983;28;20589;-63
2023/12/26 04:51:53;;;;;;;4.70;4.47;;;10.00;1.00;;;;;;4974458;28;20205;-63
2023/12/26 04:54:20;;;;;;;4.40;4.00;;;10.00;1.00;;;;;;4996150;28;20202;-63
2023/12/26 04:56:48;;;;;;;4.63;4.40;;;9.90;1.00;;;;;;4991540;28;20190;-63
2023/12/26 04:59:15;;;;;;;4.70;4.40;;;9.90;1.00;;;;;;4980027;28;20200;-64
2023/12/26 05:01:43;;;;;;;5.03;4.70;;;9.90;1.00;;;;;;4990365;28;20201;-63
2023/12/26 05:04:10;;;;;;;4.70;4.40;;;9.90;1.00;;;;;;4983926;28;20189;-63
2023/12/26 05:06:38;;;;;;;4.87;4.50;;;9.80;1.00;;;;;;4997725;28;20621;-63
2023/12/26 05:09:05;;;;;;;5.60;5.10;;;9.70;1.00;;;;;;4983814;28;20209;-62
2023/12/26 05:11:33;;;;;;;5.00;4.70;;;9.70;1.00;;;;;;5000317;28;20201;-62
2023/12/26 05:14:00;;;;;;;5.70;5.40;;;9.70;1.00;;;;;;5003408;28;20284;-62
2023/12/26 05:16:28;;;;;;;5.37;5.03;;;9.70;1.00;;;;;;4980036;28;20189;-62
2023/12/26 05:18:55;;;;;;;5.10;4.83;;;9.70;1.00;;;;;;5021726;28;20193;-62
2023/12/26 05:21:23;;;;;;;5.40;5.00;;;9.70;1.00;;;;;;5019168;28;20212;-67
2023/12/26 05:23:51;;;;;;;5.20;4.83;;;9.70;99.90;;;;;;5003892;28;20188;-65
2023/12/26 05:26:18;;;;;;;5.20;4.90;;;9.70;99.90;;;;;;5003698;28;20225;-66
2023/12/26 05:28:47;;;;;;;6.03;5.47;;;9.60;99.90;;;;;;4994097;28;20350;-66
2023/12/26 05:31:19;;;;;;;5.93;5.53;;;9.60;99.90;;;;;;4999716;28;20216;-68
2023/12/26 05:33:46;;;;;;;5.70;5.40;;;9.60;99.90;;;;;;5004792;28;20649;-67
2023/12/26 05:36:14;;;;;;;7.90;7.23;;;9.60;99.90;;;;;;5001451;28;20288;-68
2023/12/26 05:38:41;;;;;;;6.60;6.03;;;9.60;99.90;;;;;;5020469;28;20925;-67
2023/12/26 05:41:08;;;;;;;6.00;5.70;;;9.60;99.90;;;;;;5005087;28;20246;-67
2023/12/26 05:43:35;;;;;;;6.33;5.77;;;9.60;99.90;;;;;;4994273;28;20662;-71
2023/12/26 05:46:02;;;;;;;6.00;5.60;;;9.60;99.90;;;;;;5004183;28;20694;-66
2023/12/26 05:48:30;;;;;;;5.30;5.10;;;9.50;99.90;;;;;;4998219;28;20215;-66
2023/12/26 05:50:58;;;;;;;5.43;5.13;;;9.50;99.90;;;;;;5017197;28;20192;-66
2023/12/26 05:53:29;;;;;;;5.73;5.30;;;9.50;99.90;;;;;;5001892;28;20731;-65
2023/12/26 05:55:57;;;;;;;5.20;4.93;;;9.50;99.90;;;;;;4994249;28;20201;-65
2023/12/26 05:58:25;;;;;;;5.50;5.20;;;9.50;99.90;;;;;;4998821;28;20192;-67
2023/12/26 06:00:52;;;;;;;7.43;5.60;;;9.50;99.90;;;;;;4992379;28;20209;-66
2023/12/26 06:03:20;;;;;;;5.67;5.20;;;9.50;99.90;;;;;;5021067;28;20298;-66
2023/12/26 06:05:48;;;;;;;6.70;6.20;;;9.60;99.90;;;;;;5001320;28;20210;-67
2023/12/26 06:08:17;;;;;;;6.67;5.70;;;9.70;99.90;;;;;;4998374;28;20522;-67
2023/12/26 06:10:44;;;;;;;6.90;6.40;;;9.70;99.90;;;;;;5000832;28;20295;-68
2023/12/26 06:13:11;;;;;;;6.40;6.00;;;9.60;99.90;;;;;;5021513;28;20619;-67
2023/12/26 06:15:38;;;;;;;6.47;5.97;;;9.40;99.90;;;;;;5005596;28;20238;-67
2023/12/26 06:18:05;;;;;;;6.53;5.93;;;9.30;99.90;;;;;;4984757;28;20196;-66
2023/12/26 06:20:32;;;;;;;6.10;5.70;;;9.20;99.90;;;;;;4987384;28;20228;-66
2023/12/26 06:23:00;;;;;;;6.37;5.97;;;9.20;99.90;;;;;;5001921;28;20320;-67
2023/12/26 06:25:27;;;;;;;6.33;5.93;;;9.10;99.90;;;;;;5022037;28;20215;-71
2023/12/26 06:27:54;;;;;;;6.20;5.80;;;9.20;99.90;;;;;;5001887;28;20712;-67
2023/12/26 06:30:21;;;;;;;5.67;5.33;;;9.10;99.90;;;;;;5001622;28;20236;-63
2023/12/26 06:32:48;;;;;;;5.90;5.50;;;9.10;99.90;;;;;;5008209;28;20222;-61
2023/12/26 06:35:15;;;;;;;6.13;5.83;;;9.00;99.90;;;;;;5020127;28;20266;-62
2023/12/26 06:37:42;;;;;;;6.13;5.83;;;9.00;99.90;;;;;;5013054;28;20293;-62
2023/12/26 06:40:10;;;;;;;5.90;5.60;;;8.90;99.90;;;;;;4998032;28;20292;-65
2023/12/26 06:42:37;;;;;;;6.47;5.83;;;8.90;99.90;;;;;;5004372;28;20765;-66
2023/12/26 06:45:04;;;;;;;6.60;6.10;;;8.90;99.90;;;;;;5021944;28;20209;-66
2023/12/26 06:47:32;;;;;;;6.33;5.93;;;9.00;99.90;;;;;;5006602;28;20204;-65
2023/12/26 06:49:59;;;;;;;9.27;6.97;;;9.00;99.90;;;;;;4994040;28;20643;-65
2023/12/26 06:52:27;;;;;;;7.80;7.20;;;9.10;99.90;;;;;;4980433;28;20200;-66
2023/12/26 06:54:54;;;;;;;8.83;8.13;;;9.10;99.90;;;;;;5021305;28;20220;-65
2023/12/26 06:57:21;;;;;;;8.03;7.37;;;9.00;99.90;;;;;;4998310;28;20266;-64
2023/12/26 06:59:53;;;;;;;8.40;7.90;;;9.00;99.90;;;;;;5000303;28;20280;-67
2023/12/26 07:02:20;;;;;;;8.00;7.50;;;9.00;99.90;;;;;;5001941;28;20188;-66
2023/12/26 07:04:47;;;;;;;8.57;7.83;;;9.00;99.90;;;;;;5018790;28;20197;-69
2023/12/26 07:07:14;;;;;;;7.60;7.13;;;8.90;99.90;;;;;;5023983;28;20196;-66
2023/12/26 07:09:41;;;;;;;8.27;7.57;;;8.70;99.90;;;;;;5017581;28;20886;-67
2023/12/26 07:12:08;;;;;;;8.00;7.40;;;8.80;99.90;;;;;;5026417;28;20550;-66
2023/12/26 07:14:35;;;;;;;8.80;8.03;;;8.70;99.90;;;;;;4995969;28;20192;-65
2023/12/26 07:17:03;;;;;;;8.03;7.37;;;8.80;99.90;;;;;;5013068;28;20519;-65
2023/12/26 07:19:31;;;;;;;8.47;7.77;;;8.70;99.90;;;;;;4969546;28;20203;-65
2023/12/26 07:21:58;;;;;;;8.00;7.60;;;8.70;99.90;;;;;;5018808;28;20529;-68
2023/12/26 07:24:25;;;;;;;8.20;7.60;;;8.60;99.90;;;;;;5015765;28;20510;-64
2023/12/26 07:26:52;;;;;;;9.50;7.80;;;8.50;99.90;;;;;;5012535;28;20236;-64
2023/12/26 07:29:19;;;;;;;9.30;8.53;;;8.50;99.90;;;;;;5022273;28;20572;-64
2023/12/26 07:31:46;;;;;;;8.53;7.87;;;8.60;99.90;;;;;;5011948;28;20181;-66
2023/12/26 07:34:13;;;;;;;8.60;8.00;;;8.70;99.90;;;;;;5017203;28;20236;-66
2023/12/26 07:36:43;;;;;;;8.60;8.00;;;8.80;99.90;;;;;;5006157;28;20196;-66
2023/12/26 07:39:13;;;;;;;10.00;8.93;;;8.60;99.90;;;;;;4999998;28;20611;-66
2023/12/26 07:41:41;;;;;;;9.20;8.50;;;8.60;99.90;;;;;;5019924;28;20545;-66
2023/12/26 07:44:08;;;;;;;9.00;8.30;;;8.50;99.90;;;;;;4989479;28;20208;-66
2023/12/26 07:46:35;;;;;;;9.03;8.30;;;8.50;99.90;;;;;;5009233;28;20217;-66
2023/12/26 07:49:02;;;;;;;10.10;8.40;;;8.50;99.90;;;;;;5013586;28;20211;-65
2023/12/26 07:51:30;;;;;;;9.67;8.97;;;8.50;99.90;;;;;;5014691;28;20204;-65
2023/12/26 07:53:57;;;;;;;8.60;7.90;;;8.60;99.90;;;;;;4995328;28;20205;-68
2023/12/26 07:56:25;;;;;;;13.67;8.60;;;8.50;99.90;;;;;;5021449;28;20207;-67
2023/12/26 07:58:53;;;;;;;8.00;7.60;;;8.40;99.90;;;;;;5019868;28;20234;-67
2023/12/26 08:01:20;;;;;;;14.83;8.90;;;8.50;99.90;;;;;;5005858;28;20232;-66
2023/12/26 08:03:47;;;;;;;8.50;7.87;;;8.50;99.90;;;;;;5000928;28;20715;-67
2023/12/26 08:06:14;;;;;;;8.80;8.20;;;8.50;99.90;;;;;;5004935;28;20204;-66
2023/12/26 08:08:41;;;;;;;14.30;8.97;;;8.60;99.90;;;;;;5021302;28;20211;-66
2023/12/26 08:11:08;;;;;;;10.90;9.50;;;8.60;99.90;;;;;;5007695;28;20221;-65
2023/12/26 08:13:38;;;;;;;10.80;10.10;;;8.60;99.90;;;;;;5003100;28;20199;-66
2023/12/26 08:16:05;;;;;;;12.10;9.80;;;8.70;99.90;;;;;;4991671;28;20197;-66
2023/12/26 08:18:33;;;;;;;9.97;9.37;;;8.70;99.90;;;;;;5022996;28;20676;-66
2023/12/26 08:21:00;;;;;;;11.10;10.00;;;8.80;99.90;;;;;;4991054;28;20292;-67
2023/12/26 08:23:29;;;;;;;13.30;9.70;;;8.80;99.90;;;;;;5015110;28;20262;-67
2023/12/26 08:25:56;;;;;;;11.10;10.17;;;8.80;99.90;;;;;;4998934;28;20428;-67
2023/12/26 08:28:23;;;;;;;10.60;10.00;;;8.70;99.90;;;;;;5004546;28;20224;-66
2023/12/26 08:30:50;;;;;;;10.93;10.33;;;8.70;99.90;;;;;;5018471;28;20615;-68
2023/12/26 08:33:17;;;;;;;11.53;10.40;;;8.70;99.90;;;;;;4999312;28;20185;-68
2023/12/26 08:35:44;;;;;;;11.83;10.70;;;8.70;99.90;;;;;;5006061;28;20208;-71
2023/12/26 08:38:12;;;;;;;12.63;11.07;;;8.70;99.90;;;;;;5007635;28;20216;-67
2023/12/26 08:40:39;;;;;;;11.40;10.30;;;8.70;99.90;;;;;;5002411;28;20200;-68
2023/12/26 08:43:06;;;;;;;12.43;11.27;;;8.70;99.90;;;;;;5004905;28;20196;-68
2023/12/26 08:45:34;;;;;;;11.87;10.90;;;8.70;99.90;;;;;;5023444;28;20225;-68
2023/12/26 08:48:01;;;;;;;11.87;11.07;;;8.70;99.90;;;;;;4995922;28;20201;-68
2023/12/26 08:50:29;;;;;;;11.40;10.70;;;8.60;99.90;;;;;;5003492;28;20871;-66
2023/12/26 08:52:56;;;;;;;11.80;11.00;;;8.70;99.90;;;;;;5010290;28;20200;-66
2023/12/26 08:55:23;;;;;;;11.50;10.83;;;8.70;99.90;;;;;;5004388;28;20638;-66
2023/12/26 08:57:50;;;;;;;11.33;10.63;;;8.70;99.90;;;;;;4992584;28;20204;-66
2023/12/26 09:00:19;;;;;;;13.27;10.73;;;8.70;99.90;;;;;;5016099;28;20208;-67
2023/12/26 09:02:46;;;;;;;11.43;10.63;;;8.80;99.90;;;;;;4990339;28;20215;-66
2023/12/26 09:05:26;;;;;;;11.10;10.40;;;8.90;99.90;;;;;;5011952;28;20189;-73
2023/12/26 09:07:57;;;;;;;11.13;10.33;;;8.90;99.90;;;;;;4994125;28;20191;-67
2023/12/26 09:10:24;;;;;;;11.60;10.80;;;8.90;99.90;;;;;;5013045;28;20189;-66
2023/12/26 09:12:51;;;;;;;11.90;10.70;;;9.10;99.90;;;;;;5005043;28;20959;-66
2023/12/26 09:15:18;;;;;;;11.63;10.60;;;9.30;99.90;;;;;;5011304;28;20193;-66
2023/12/26 09:17:45;;;;;;;11.60;10.70;;;9.50;99.90;;;;;;4997828;28;20228;-64
2023/12/26 09:20:12;;;;;;;11.13;10.20;;;10.00;99.90;;;;;;5005734;28;20189;-72
2023/12/26 09:22:40;;;;;;;13.10;10.50;;;10.70;99.90;;;;;;5005684;28;20219;-67
2023/12/26 09:25:10;;;;;;;11.80;11.00;;;12.80;99.90;;;;;;5011796;28;20725;-69
2023/12/26 09:27:37;;;;;;;12.35;11.65;;;15.10;99.90;;;;;;5005475;28;20217;-67
2023/12/26 09:30:05;;;;;;;13.68;12.77;;;16.40;99.90;;;;;;5008751;28;20229;-71
2023/12/26 09:32:32;;;;;;;15.25;14.00;;;15.50;99.90;;;;;;4993663;28;20670;-69
2023/12/26 09:34:59;;;;;;;14.95;13.63;;;13.10;99.90;;;;;;4994001;28;20207;-68
2023/12/26 09:37:27;;;;;;;14.33;13.37;;;12.40;99.90;;;;;;4995244;28;20194;-68
2023/12/26 09:39:54;;;;;;;14.83;13.50;;;11.70;99.90;;;;;;4979443;28;20228;-68
2023/12/26 09:42:22;;;;;;;14.80;13.70;;;11.40;99.90;;;;;;5005056;28;20217;-68
2023/12/26 09:44:50;;;;;;;14.60;13.17;;;11.20;99.90;;;;;;5006018;28;20193;-68
2023/12/26 09:47:20;;;;;;;14.10;13.20;;;11.90;99.90;;;;;;4996418;28;20677;-69
2023/12/26 09:49:47;;;;;;;14.10;13.30;;;15.90;99.90;;;;;;4997981;28;20205;-68
2023/12/26 09:52:15;;;;;;;14.57;13.57;;;16.70;99.90;;;;;;4999607;28;20220;-67
2023/12/26 09:54:44;;;;;;;15.23;14.00;;;14.50;99.90;;;;;;5010269;28;20189;-68
2023/12/26 09:57:15;;;;;;;15.38;14.20;;;13.30;99.90;;;;;;4979489;28;20202;-71
2023/12/26 09:59:43;;;;;;;15.32;14.20;;;12.40;99.90;;;;;;5001577;28;20202;-67
2023/12/26 10:02:14;;;;;;;15.80;14.70;;;11.80;99.90;;;;;;4984813;28;20199;-69
2023/12/26 10:04:42;;;;;;;15.17;13.97;;;11.20;99.90;;;;;;5002442;28;20193;-64
2023/12/26 10:07:09;;;;;;;15.53;14.30;;;10.80;99.90;;;;;;5004830;28;20661;-63
2023/12/26 10:09:36;;;;;;;15.23;13.90;;;10.60;99.90;;;;;;4990230;28;20195;-64
2023/12/26 10:12:04;;;;;;;15.20;14.00;;;10.40;99.90;;;;;;5006812;28;20197;-81
2023/12/26 10:14:36;;;;;;;15.90;14.50;;;10.20;99.90;;;;;;4978258;28;20241;-63
2023/12/26 10:17:06;;;;;;;15.10;13.87;;;10.00;99.90;;;;;;4997703;28;20598;-63
2023/12/26 10:19:32;;;;;;;15.73;14.30;;;9.90;99.90;;;;;;4987046;28;20193;-62
2023/12/26 10:22:02;;;;;;;14.60;13.60;;;9.90;99.90;;;;;;4991945;28;20874;-62
2023/12/26 10:24:30;;;;;;;15.40;14.07;;;9.90;99.90;;;;;;4988122;28;20761;-62
2023/12/26 10:26:59;;;;;;;15.13;13.80;;;10.00;99.90;;;;;;4997489;28;20233;-74
2023/12/26 10:29:26;;;;;;;14.53;13.43;;;10.00;99.90;;;;;;4996746;28;20320;-68
2023/12/26 10:31:54;;;;;;;15.93;14.40;;;10.00;99.90;;;;;;5011643;28;20224;-63
2023/12/26 10:34:21;;;;;;;15.53;14.07;;;10.10;99.90;;;;;;5006417;28;20189;-71
2023/12/26 10:36:50;;;;;;;14.13;13.07;;;11.00;99.90;;;;;;4992142;28;20201;-62
2023/12/26 10:39:17;;;;;;;14.63;13.23;;;12.10;99.90;;;;;;5014895;28;20821;-66
2023/12/26 10:41:47;;;;;;;15.13;13.90;;;12.20;99.90;;;;;;4979909;28;20210;-64
2023/12/26 10:44:16;;;;;;;14.00;13.00;;;12.60;99.90;;;;;;4996266;28;20224;-66
2023/12/26 10:46:44;;;;;;;14.88;13.57;;;13.80;99.90;;;;;;4969013;28;20256;-62
2023/12/26 10:49:21;;;;;;;14.88;13.68;;;16.10;99.90;;;;;;5005395;28;20588;-62
2023/12/26 10:51:51;;;;;;;15.75;14.75;;;16.20;99.90;;;;;;4991102;28;20192;-64
2023/12/26 10:54:20;;;;;;;17.10;15.50;;;17.40;99.90;;;;;;4991488;28;20192;-63
2023/12/26 10:56:49;;;;;;;16.80;15.43;;;16.00;99.90;;;;;;4993045;28;20196;-66
2023/12/26 13:54:22;;;;;;;16.23;14.83;;;9.90;99.90;;;;;;5007088;28;20541;-66
2023/12/26 13:56:49;;;;;;;15.73;14.43;;;9.90;99.90;;;;;;4981454;28;20219;-63
2023/12/26 13:59:16;;;;;;;15.60;14.37;;;9.90;99.90;;;;;;5010515;28;20543;-63
2023/12/26 14:02:21;;;;;;;19.60;16.37;;;9.90;99.90;;;;;;4999728;28;20826;-63
2023/12/26 14:08:49;;;;;;;17.40;15.90;;;9.80;99.90;;;;;;5005146;28;20576;-64
2023/12/26 14:11:18;;;;;;;17.20;15.80;;;9.80;99.90;;;;;;5001830;28;20199;-63
2023/12/26 14:14:22;;;;;;;17.27;15.43;;;9.80;99.90;;;;;;5004253;28;20201;-64
2023/12/26 14:17:27;;;;;;;17.60;15.83;;;9.80;99.90;;;;;;4979797;28;20196;-63
2023/12/26 14:20:32;;;;;;;16.63;15.03;;;9.80;99.90;;;;;;5010510;28;20334;-63
2023/12/26 14:23:36;;;;;;;16.37;14.87;;;9.80;99.90;;;;;;5006455;28;20270;-62
2023/12/26 14:26:03;;;;;;;20.03;17.97;;;9.80;99.90;;;;;;5007292;28;20678;-67
2023/12/26 14:28:30;;;;;;;17.37;15.70;;;9.70;99.90;;;;;;5013440;28;20279;-61
2023/12/26 14:31:35;;;;;;;17.27;15.50;;;9.70;99.90;;;;;;5013424;28;20566;-63
2023/12/26 14:34:02;;;;;;;17.63;15.93;;;9.60;99.90;;;;;;5015851;28;20278;-62
2023/12/26 14:36:29;;;;;;;18.23;15.20;;;9.60;99.90;;;;;;4994461;28;20189;-62
2023/12/26 14:39:34;;;;;;;15.87;14.67;;;9.60;99.90;;;;;;4994183;28;20207;-62
2023/12/26 14:42:39;;;;;;;16.30;14.77;;;9.60;99.90;;;;;;4971174;28;20317;-62
2023/12/26 14:45:06;;;;;;;15.87;14.50;;;9.50;99.90;;;;;;5019953;28;20196;-63
2023/12/26 14:47:33;;;;;;;16.10;15.00;;;9.50;99.90;;;;;;5009490;28;20208;-62
2023/12/26 14:50:37;;;;;;;15.87;14.57;;;9.50;99.90;;;;;;4972816;28;20638;-62
2023/12/26 14:53:42;;;;;;;16.30;14.60;;;9.50;99.90;;;;;;5004506;28;20253;-64
2023/12/26 14:56:09;;;;;;;15.70;14.40;;;9.50;99.90;;;;;;4997733;28;20201;-68
2023/12/26 14:58:36;;;;;;;16.90;15.33;;;9.40;99.90;;;;;;4982591;28;20413;-63
2023/12/26 15:01:41;;;;;;;16.67;14.93;;;9.40;99.90;;;;;;5004853;28;20197;-66
2023/12/26 15:04:08;;;;;;;16.90;15.30;;;9.40;99.90;;;;;;4995280;28;20200;-62
2023/12/26 15:06:35;;;;;;;20.70;15.87;;;9.40;99.90;;;;;;5013219;28;20280;-64
2023/12/26 15:09:03;;;;;;;15.40;14.20;;;9.30;99.90;;;;;;5007713;28;20216;-62
2023/12/26 15:11:30;;;;;;;18.60;16.73;;;9.30;99.90;;;;;;5015397;28;20954;-62
2023/12/26 15:13:57;;;;;;;28.73;20.43;;;9.30;99.90;;;;;;5013946;28;20207;-61
2023/12/26 15:16:44;;;;;;;18.23;16.07;;;9.30;99.90;;;;;;4993657;28;20192;-62
2023/12/26 15:19:11;;;;;;;16.50;14.97;;;9.30;99.90;;;;;;5014179;28;20196;-62
2023/12/26 15:21:42;;;;;;;15.90;14.70;;;9.30;99.90;;;;;;5009876;28;20186;-62
2023/12/26 15:24:10;;;;;;;16.47;15.20;;;9.30;99.90;;;;;;4985109;28;20197;-62
2023/12/26 15:26:42;;;;;;;15.87;14.57;;;9.30;99.90;;;;;;4983503;28;20209;-63
2023/12/26 15:29:09;;;;;;;16.30;14.67;;;9.20;99.90;;;;;;5005363;28;20197;-62
2023/12/26 15:31:36;;;;;;;15.47;14.20;;;9.10;99.90;;;;;;4990129;28;20197;-62
2023/12/26 15:34:04;;;;;;;15.43;14.33;;;9.10;99.90;;;;;;5004247;28;20180;-62
2023/12/26 15:36:32;;;;;;;16.40;14.30;;;9.00;99.90;;;;;;4996099;28;20724;-62
2023/12/26 15:38:59;;;;;;;15.13;13.93;;;9.00;99.90;;;;;;5008009;28;20201;-63
2023/12/26 15:41:27;;;;;;;14.77;13.50;;;9.00;99.90;;;;;;5017767;28;20205;-62
2023/12/26 15:43:54;;;;;;;17.23;13.87;;;8.90;99.90;;;;;;5020079;28;20203;-61
2023/12/26 15:46:23;;;;;;;15.53;14.10;;;8.90;99.90;;;;;;5011332;28;20204;-63
2023/12/26 15:48:52;;;;;;;14.43;13.40;;;8.90;99.90;;;;;;5018890;28;20220;-61
2023/12/26 15:51:22;;;;;;;15.33;14.00;;;8.90;99.90;;;;;;5001204;28;20184;-62
2023/12/26 15:53:50;;;;;;;14.57;13.57;;;8.90;99.90;;;;;;5017730;28;20322;-62
2023/12/26 15:56:20;;;;;;;18.77;14.70;;;8.90;99.90;;;;;;4999668;28;20229;-64
2023/12/26 15:58:48;;;;;;;14.73;13.73;;;8.90;99.90;;;;;;5018026;28;20244;-61